Time;durP1;ratioP1;P1;durP2;ratioP2;P2;SDS_P1;SDS_P2;PMS_P1;PMS_P2;Temp;Humidity;BMP_temperature;BMP_pressure;BME280_temperature;BME280_humidity;BME280_pressure;Samples;Min_cycle;Max_cycle;Signal;HPM_P1;HPM_P2
2022/01/25 00:15:38;;;;;;;234.18;62.15;;;;;;;3.55;100.00;103103.53;5005213;28;20096;-83
2022/01/25 00:26:24;;;;;;;219.63;60.65;;;;;;;3.57;100.00;103110.72;5005402;28;20038;-82
2022/01/25 00:29:03;;;;;;;207.32;57.25;;;;;;;3.45;100.00;103103.66;5021137;28;20069;-83
2022/01/25 00:31:28;;;;;;;221.52;60.95;;;;;;;3.48;100.00;103105.44;5004603;28;20034;-84
2022/01/25 00:33:54;;;;;;;213.65;58.92;;;;;;;3.42;100.00;103103.69;5004962;28;20034;-83
2022/01/25 00:36:23;;;;;;;219.23;60.40;;;;;;;3.36;100.00;103114.63;5018470;28;20467;-82
2022/01/25 00:38:49;;;;;;;223.07;58.67;;;;;;;3.43;100.00;103119.03;4987935;28;20035;-82
2022/01/25 00:41:16;;;;;;;216.75;58.85;;;;;;;3.46;100.00;103113.56;4987807;28;20125;-83
2022/01/25 00:43:43;;;;;;;231.95;62.03;;;;;;;3.53;100.00;103113.50;4991042;28;20030;-82
2022/01/25 00:46:11;;;;;;;227.40;60.83;;;;;;;3.50;100.00;103103.59;4988885;28;20030;-82
2022/01/25 00:51:22;;;;;;;246.52;63.35;;;;;;;3.41;100.00;103091.06;5006584;28;20533;-84
2022/01/25 00:53:59;;;;;;;;;;;;;;;3.52;100.00;103112.59;5017079;28;20034;-83
2022/01/25 00:56:30;;;;;;;231.10;60.78;;;;;;;3.50;100.00;103109.00;5006177;28;20238;-83
2022/01/25 00:58:57;;;;;;;230.32;58.72;;;;;;;3.52;100.00;103112.59;5017540;28;20033;-82
2022/01/25 01:01:23;;;;;;;242.00;63.00;;;;;;;3.59;100.00;103117.03;5006119;28;20042;-82
2022/01/25 01:03:49;;;;;;;228.55;60.35;;;;;;;3.46;100.00;103121.69;5038306;28;20034;-82
2022/01/25 01:06:15;;;;;;;236.38;64.47;;;;;;;3.46;100.00;103113.56;4995867;28;20042;-83
2022/01/25 01:08:42;;;;;;;243.48;63.33;;;;;;;3.42;100.00;103110.91;4988285;28;20034;-82
2022/01/25 01:11:12;;;;;;;258.15;63.70;;;;;;;3.42;100.00;103111.81;5001414;28;20027;-83
2022/01/25 01:40:48;;;;;;;271.85;70.15;;;;;;;3.30;100.00;103102.03;5004999;28;20034;-82
2022/01/25 01:46:27;;;;;;;250.18;66.10;;;;;;;3.30;100.00;103110.16;5037340;28;20105;-84
2022/01/25 01:48:47;;;;;;;214.30;58.67;;;;;;;3.31;100.00;103102.91;5034898;28;20042;-83
2022/01/25 01:51:25;;;;;;;213.82;57.97;;;;;;;3.46;100.00;103109.94;5017738;28;20054;-83
2022/01/25 01:53:53;;;;;;;228.48;60.40;;;;;;;3.30;100.00;103102.03;4994638;28;20025;-82
2022/01/25 01:56:19;;;;;;;238.45;64.78;;;;;;;3.07;100.00;103082.47;5021086;28;20041;-82
2022/01/25 01:58:45;;;;;;;231.88;63.53;;;;;;;3.31;100.00;103113.75;5015676;28;20389;-82
2022/01/25 02:01:14;;;;;;;246.02;63.85;;;;;;;3.37;100.00;103110.97;5007137;28;20077;-82
2022/01/25 02:03:40;;;;;;;246.02;66.03;;;;;;;3.38;100.00;103117.28;5036859;28;20034;-82
2022/01/25 02:06:06;;;;;;;244.95;64.75;;;;;;;3.36;100.00;103108.28;5004723;28;20045;-83
2022/01/25 02:08:33;;;;;;;251.15;65.60;;;;;;;3.29;100.00;103099.34;5000372;28;20034;-83
2022/01/25 02:11:00;;;;;;;249.07;66.63;;;;;;;3.35;100.00;103107.41;4992964;28;20027;-82
2022/01/25 02:13:26;;;;;;;243.07;63.70;;;;;;;3.42;100.00;103109.09;4989052;28;20042;-81
2022/01/25 02:15:54;;;;;;;263.45;64.13;;;;;;;3.38;100.00;103109.16;5009932;28;20027;-82
2022/01/25 02:23:49;;;;;;;266.35;67.13;;;;;;;3.40;100.00;103110.06;4998485;28;20033;-82
2022/01/25 02:26:15;;;;;;;262.30;68.65;;;;;;;3.35;100.00;103104.69;5006982;28;20035;-82
2022/01/25 02:28:44;;;;;;;254.95;67.32;;;;;;;3.34;100.00;103112.81;5018696;28;20078;-83
2022/01/25 02:31:12;;;;;;;277.80;69.90;;;;;;;3.38;100.00;103110.06;5008364;28;20029;-84
2022/01/25 02:33:38;;;;;;;263.95;67.43;;;;;;;3.18;100.00;103094.06;5005597;28;20038;-84
2022/01/25 02:36:10;;;;;;;259.10;68.88;;;;;;;3.33;100.00;103097.47;4990976;28;20074;-82
2022/01/25 02:38:36;;;;;;;255.20;67.18;;;;;;;3.39;100.00;103101.00;5008502;28;20034;-83
2022/01/25 02:41:03;;;;;;;264.70;71.80;;;;;;;3.43;100.00;103102.78;5010230;28;20501;-83
2022/01/25 02:43:34;;;;;;;252.50;68.22;;;;;;;3.47;100.00;103088.25;5010319;28;20033;-83
2022/01/25 02:48:54;;;;;;;271.17;69.43;;;;;;;3.57;100.00;103097.16;5005456;28;20057;-81
2022/01/25 02:51:35;;;;;;;257.17;68.18;;;;;;;3.61;100.00;103098.94;5025615;28;20104;-83
2022/01/25 02:54:03;;;;;;;257.02;66.18;;;;;;;3.39;100.00;103094.72;5006871;28;20058;-83
2022/01/25 02:56:31;;;;;;;258.17;68.45;;;;;;;3.35;100.00;103069.50;5030329;28;20173;-83
2022/01/25 02:58:57;;;;;;;262.35;68.70;;;;;;;3.39;100.00;103087.47;5033598;28;20027;-83
2022/01/25 03:01:23;;;;;;;260.70;69.93;;;;;;;3.47;100.00;103088.25;5006807;28;20385;-81
2022/01/25 03:03:50;;;;;;;275.00;69.88;;;;;;;3.39;100.00;103092.00;5042738;28;20042;-82
2022/01/25 03:06:21;;;;;;;275.17;67.97;;;;;;;3.35;100.00;103072.19;5007073;28;20022;-81
2022/01/25 03:08:48;;;;;;;274.45;72.20;;;;;;;3.40;100.00;103088.38;5009278;28;20117;-83
2022/01/25 03:11:14;;;;;;;268.40;71.28;;;;;;;3.31;100.00;103071.34;5000557;28;20030;-83
2022/01/25 03:13:55;;;;;;;262.77;71.75;;;;;;;3.31;100.00;103074.06;5026349;28;20034;-83
2022/01/25 03:16:36;;;;;;;273.08;70.40;;;;;;;3.39;100.00;103070.34;4991812;28;20087;-83
2022/01/25 03:19:27;;;;;;;261.08;70.60;;;;;;;3.34;100.00;103069.50;5014831;28;20424;-82
2022/01/25 03:21:49;;;;;;;261.75;67.97;;;;;;;3.37;100.00;103070.34;5040078;28;20034;-83
2022/01/25 03:24:15;;;;;;;258.65;68.50;;;;;;;3.35;100.00;103068.59;5006764;28;20026;-82
2022/01/25 03:26:41;;;;;;;259.73;69.53;;;;;;;3.34;100.00;103059.56;5006306;28;20101;-82
2022/01/25 03:29:06;;;;;;;256.15;69.53;;;;;;;3.37;100.00;103062.22;5006927;28;20038;-82
2022/01/25 03:31:32;;;;;;;246.02;66.20;;;;;;;3.36;100.00;103060.47;4990325;28;20384;-82
2022/01/25 03:33:58;;;;;;;247.85;65.63;;;;;;;3.31;100.00;103054.19;4991457;28;20026;-82
2022/01/25 03:36:23;;;;;;;254.73;67.28;;;;;;;3.37;100.00;103054.09;5009169;28;20097;-83
2022/01/25 03:38:49;;;;;;;251.48;66.93;;;;;;;3.36;100.00;103062.25;5006429;28;20026;-81
2022/01/25 03:41:16;;;;;;;251.52;66.97;;;;;;;3.33;100.00;103048.75;5016939;28;20042;-82
2022/01/25 03:43:43;;;;;;;240.00;65.85;;;;;;;3.34;100.00;103054.16;5006351;28;20023;-82
2022/01/25 03:51:41;;;;;;;257.10;67.30;;;;;;;3.20;100.00;103043.50;5015496;28;20433;-84
2022/01/25 03:54:07;;;;;;;226.13;65.95;;;;;;;3.21;100.00;103034.47;5006378;28;20042;-81
2022/01/25 03:56:33;;;;;;;246.80;67.13;;;;;;;3.36;100.00;103046.00;5007347;28;20031;-83
2022/01/25 03:58:59;;;;;;;254.15;63.47;;;;;;;3.38;100.00;103042.38;5017638;28;20036;-81
2022/01/25 04:01:25;;;;;;;243.82;63.72;;;;;;;3.37;100.00;103046.00;5005786;28;20030;-83
2022/01/25 04:06:22;;;;;;;242.25;65.47;;;;;;;3.33;100.00;103062.28;5033837;28;20070;-82
2022/01/25 04:08:47;;;;;;;247.35;66.15;;;;;;;3.30;100.00;103063.25;5008223;28;20038;-82
2022/01/25 04:11:13;;;;;;;252.88;69.03;;;;;;;3.24;100.00;103055.19;5006010;28;20037;-82
2022/01/25 04:13:39;;;;;;;251.50;66.72;;;;;;;3.35;100.00;103066.78;5008662;28;20045;-83
2022/01/25 04:16:12;;;;;;;251.82;63.40;;;;;;;3.33;100.00;103056.88;5022634;28;20121;-82
2022/01/25 04:26:49;;;;;;;239.55;61.45;;;;;;;3.28;100.00;103062.34;5037286;28;20030;-84
2022/01/25 04:29:15;;;;;;;246.40;63.92;;;;;;;3.26;100.00;103056.97;5038105;28;20030;-83
2022/01/25 04:31:42;;;;;;;241.70;64.95;;;;;;;3.26;100.00;103046.16;5024080;28;20050;-83
2022/01/25 04:34:12;;;;;;;238.52;62.45;;;;;;;3.17;100.00;103038.13;5021831;28;20086;-83
2022/01/25 04:50:06;;;;;;;242.40;63.35;;;;;;;3.29;100.00;103046.06;5006749;28;20057;-82
2022/01/25 04:52:39;;;;;;;250.40;64.63;;;;;;;3.28;100.00;103048.81;5029970;28;20114;-82
2022/01/25 05:00:16;;;;;;;244.82;64.25;;;;;;;3.43;100.00;103054.03;5033430;28;20102;-82
2022/01/25 05:05:23;;;;;;;237.90;62.50;;;;;;;3.43;100.00;103056.75;5007042;28;20030;-83
2022/01/25 05:07:57;;;;;;;249.20;62.75;;;;;;;3.42;100.00;103054.06;5020849;28;20470;-83
2022/01/25 05:10:23;;;;;;;254.32;63.42;;;;;;;3.20;100.00;103046.22;5005387;28;20038;-82
2022/01/25 05:23:18;;;;;;;250.43;63.28;;;;;;;3.32;100.00;103056.00;5007665;28;20030;-82
2022/01/25 05:25:44;;;;;;;250.55;65.45;;;;;;;3.28;100.00;103048.81;5000586;28;20093;-81
2022/01/25 05:28:09;;;;;;;260.65;67.32;;;;;;;3.18;100.00;103036.31;5027923;28;20444;-82
2022/01/25 05:30:35;;;;;;;272.08;66.93;;;;;;;3.27;100.00;103030.78;5018206;28;20034;-81
2022/01/25 05:33:01;;;;;;;238.93;62.90;;;;;;;3.19;100.00;103041.72;5004800;28;20190;-82
2022/01/25 05:35:26;;;;;;;251.18;67.03;;;;;;;3.16;100.00;103019.22;5002945;28;20065;-81
2022/01/25 05:37:52;;;;;;;254.60;65.95;;;;;;;3.24;100.00;103029.00;4987481;28;20045;-82
2022/01/25 05:40:28;;;;;;;261.42;66.53;;;;;;;3.22;100.00;103032.66;5000953;28;20034;-80
2022/01/25 05:45:56;;;;;;;248.15;62.13;;;;;;;3.25;100.00;103029.94;5035844;28;20061;-80
2022/01/25 05:48:23;;;;;;;263.67;67.40;;;;;;;3.24;100.00;103039.84;5019015;28;20037;-80
2022/01/25 05:50:49;;;;;;;256.17;65.45;;;;;;;3.29;100.00;103051.50;5003492;28;20022;-82
2022/01/25 05:53:14;;;;;;;257.98;64.07;;;;;;;3.35;100.00;103041.53;4972549;28;20059;-79
2022/01/25 05:55:40;;;;;;;248.98;63.83;;;;;;;3.25;100.00;103029.94;4993810;28;20039;-80
2022/01/25 05:58:06;;;;;;;247.40;66.55;;;;;;;3.32;100.00;103045.16;5003022;28;20623;-79
2022/01/25 06:00:31;;;;;;;245.68;64.97;;;;;;;3.19;100.00;103035.41;5019091;28;20052;-80
2022/01/25 06:02:57;;;;;;;241.38;65.25;;;;;;;3.33;100.00;103038.84;5028917;28;20027;-79
2022/01/25 06:05:25;;;;;;;236.23;63.33;;;;;;;3.17;100.00;103021.00;5015615;28;20031;-79
2022/01/25 06:07:51;;;;;;;257.88;66.22;;;;;;;3.22;100.00;103028.13;4997488;28;20398;-82
2022/01/25 06:10:17;;;;;;;261.52;65.40;;;;;;;3.23;100.00;103031.72;4992419;28;20050;-81
2022/01/25 06:12:44;;;;;;;258.73;69.40;;;;;;;3.27;100.00;103023.56;5019224;28;20037;-81
2022/01/25 06:15:11;;;;;;;245.68;64.13;;;;;;;3.38;100.00;103033.34;5026944;28;20405;-80
2022/01/25 06:17:38;;;;;;;259.38;69.90;;;;;;;3.44;100.00;103034.19;5008516;28;20098;-79
2022/01/25 06:20:06;;;;;;;258.83;66.03;;;;;;;3.29;100.00;103032.53;5005706;28;20034;-80
2022/01/25 06:22:31;;;;;;;259.25;65.65;;;;;;;3.30;100.00;103039.75;5011680;28;20086;-80
2022/01/25 06:24:57;;;;;;;279.58;68.97;;;;;;;3.19;100.00;103030.00;5017241;28;20411;-81
2022/01/25 06:27:22;;;;;;;251.93;66.55;;;;;;;3.22;100.00;103033.56;5034797;28;20034;-80
2022/01/25 06:29:49;;;;;;;278.27;68.35;;;;;;;3.27;100.00;103026.25;5008353;28;20093;-79
2022/01/25 06:32:16;;;;;;;273.52;71.28;;;;;;;3.19;100.00;103021.88;5002522;28;20046;-80
2022/01/25 06:34:41;;;;;;;283.65;71.28;;;;;;;3.26;100.00;103029.00;5015427;28;20042;-81
2022/01/25 06:37:07;;;;;;;280.13;68.82;;;;;;;3.32;100.00;103028.91;5008929;28;20176;-81
2022/01/25 06:39:32;;;;;;;287.42;72.45;;;;;;;3.25;100.00;103030.81;5006696;28;20080;-80
2022/01/25 06:41:58;;;;;;;263.63;67.85;;;;;;;3.31;100.00;103033.44;5010075;28;20046;-80
2022/01/25 06:44:23;;;;;;;275.83;67.65;;;;;;;3.29;100.00;103039.78;5012039;28;20033;-80
2022/01/25 06:46:49;;;;;;;269.77;71.80;;;;;;;3.39;100.00;103046.84;5013986;28;20048;-80
2022/01/25 06:49:16;;;;;;;258.10;65.78;;;;;;;3.22;100.00;103043.50;5007310;28;20041;-79
2022/01/25 06:51:42;;;;;;;267.90;69.40;;;;;;;3.26;100.00;103043.44;4987595;28;20035;-80
2022/01/25 06:54:08;;;;;;;271.70;72.28;;;;;;;3.21;100.00;103036.28;5005629;28;20035;-80
2022/01/25 06:56:34;;;;;;;272.63;69.35;;;;;;;3.07;100.00;103037.34;5006970;28;20076;-81
2022/01/25 06:58:59;;;;;;;277.75;68.97;;;;;;;3.21;100.00;103039.88;5009445;28;20054;-82
2022/01/25 07:01:25;;;;;;;273.70;68.50;;;;;;;3.25;100.00;103040.75;4991363;28;20122;-81
2022/01/25 07:03:51;;;;;;;288.80;73.68;;;;;;;3.39;100.00;103049.56;4990569;28;20046;-81
2022/01/25 07:06:17;;;;;;;274.70;67.70;;;;;;;3.39;100.00;103044.16;5022984;28;20046;-80
2022/01/25 07:08:45;;;;;;;264.73;68.65;;;;;;;3.31;100.00;103043.34;5006754;28;20065;-81
2022/01/25 07:11:14;;;;;;;283.08;71.88;;;;;;;3.15;100.00;103056.22;5024276;28;20054;-81
2022/01/25 07:13:42;;;;;;;294.45;72.68;;;;;;;3.23;100.00;103057.00;5023361;28;20030;-79
2022/01/25 07:16:07;;;;;;;295.95;73.35;;;;;;;3.30;100.00;103055.13;5008656;28;20034;-81
2022/01/25 07:18:33;;;;;;;299.33;73.57;;;;;;;3.25;100.00;103057.00;5008598;28;20041;-81
2022/01/25 07:20:59;;;;;;;285.50;72.50;;;;;;;3.24;100.00;103047.97;5008516;28;20442;-80
2022/01/25 07:23:24;;;;;;;277.15;70.78;;;;;;;3.37;100.00;103054.09;5006661;28;20034;-82
2022/01/25 07:25:50;;;;;;;271.27;70.78;;;;;;;3.40;100.00;103064.91;5007776;28;20030;-81
2022/01/25 07:28:15;;;;;;;265.23;68.80;;;;;;;3.28;100.00;103060.56;5024732;28;20030;-80
2022/01/25 07:30:41;;;;;;;274.05;72.80;;;;;;;3.20;100.00;103053.44;5007765;28;20034;-81
2022/01/25 07:33:07;;;;;;;285.08;73.50;;;;;;;3.21;100.00;103060.63;5009646;28;20041;-81
2022/01/25 07:35:37;;;;;;;282.35;71.30;;;;;;;3.29;100.00;103070.44;5006851;28;20041;-82
2022/01/25 07:38:03;;;;;;;260.42;66.75;;;;;;;3.38;100.00;103058.63;5026600;28;20022;-81
2022/01/25 07:40:30;;;;;;;280.00;69.95;;;;;;;3.21;100.00;103057.94;5008547;28;20050;-83
2022/01/25 07:42:56;;;;;;;266.50;69.85;;;;;;;3.21;100.00;103069.66;4978729;28;20045;-82
2022/01/25 07:45:24;;;;;;;273.02;71.60;;;;;;;3.19;100.00;103060.66;5006618;28;20034;-81
2022/01/25 07:47:49;;;;;;;275.73;69.88;;;;;;;3.20;100.00;103057.06;5007150;28;20052;-79
2022/01/25 07:50:15;;;;;;;291.00;72.00;;;;;;;3.19;100.00;103059.78;4991229;28;20054;-82
2022/01/25 07:52:41;;;;;;;268.20;72.30;;;;;;;3.29;100.00;103053.31;5032384;28;20137;-81
2022/01/25 07:55:08;;;;;;;286.73;75.63;;;;;;;3.17;100.00;103045.38;5021410;28;20054;-82
2022/01/25 07:57:34;;;;;;;274.05;70.05;;;;;;;3.21;100.00;103045.28;5007876;28;20030;-84
2022/01/25 08:00:00;;;;;;;283.73;73.32;;;;;;;3.08;100.00;103024.72;5003843;28;20054;-84
2022/01/25 08:02:26;;;;;;;291.08;74.53;;;;;;;3.23;100.00;103053.38;5006340;28;20034;-84
2022/01/25 08:04:54;;;;;;;297.90;75.35;;;;;;;3.21;100.00;103053.41;5004937;28;20073;-85
2022/01/25 08:07:19;;;;;;;289.63;73.10;;;;;;;3.14;100.00;103046.28;5041115;28;20026;-84
2022/01/25 08:09:45;;;;;;;336.23;81.03;;;;;;;3.15;100.00;103058.91;5010501;28;20379;-84
2022/01/25 08:12:11;;;;;;;347.75;81.78;;;;;;;3.23;100.00;103057.00;5010286;28;20030;-82
2022/01/25 08:14:39;;;;;;;339.77;81.55;;;;;;;3.30;100.00;103063.25;4995718;28;20038;-82
2022/01/25 08:17:06;;;;;;;324.60;80.10;;;;;;;3.27;100.00;103057.88;5011424;28;20085;-82
2022/01/25 08:19:31;;;;;;;326.83;80.05;;;;;;;3.11;100.00;103038.22;5003785;28;20034;-83
2022/01/25 08:21:57;;;;;;;306.20;75.93;;;;;;;3.33;100.00;103060.50;5009631;28;20026;-82
2022/01/25 08:24:22;;;;;;;300.58;76.28;;;;;;;3.23;100.00;103066.91;4992745;28;20127;-82
2022/01/25 08:26:48;;;;;;;307.25;79.20;;;;;;;3.30;100.00;103052.41;5012535;28;20084;-83
2022/01/25 08:29:14;;;;;;;324.15;76.93;;;;;;;3.23;100.00;103053.38;5012333;28;20106;-83
2022/01/25 08:31:40;;;;;;;300.35;77.40;;;;;;;3.35;100.00;103060.47;5012658;28;20034;-81
2022/01/25 08:34:07;;;;;;;310.65;81.20;;;;;;;3.31;100.00;103070.44;5003202;28;20037;-83
2022/01/25 08:36:32;;;;;;;303.85;78.35;;;;;;;3.24;100.00;103074.13;4994090;28;20061;-83
2022/01/25 08:38:58;;;;;;;306.00;76.47;;;;;;;3.23;100.00;103072.34;5017733;28;20421;-83
2022/01/25 08:41:24;;;;;;;300.73;76.20;;;;;;;3.21;100.00;103064.22;5010401;28;20046;-82
2022/01/25 08:43:51;;;;;;;296.50;76.68;;;;;;;3.25;100.00;103073.25;5014363;28;20050;-82
2022/01/25 08:46:18;;;;;;;320.58;82.18;;;;;;;3.18;100.00;103058.88;5008775;28;20461;-82
2022/01/25 08:48:45;;;;;;;329.17;82.57;;;;;;;3.31;100.00;103083.97;5008940;28;20446;-83
2022/01/25 08:51:11;;;;;;;345.65;88.63;;;;;;;3.30;100.00;103080.38;5024212;28;20090;-82
2022/01/25 08:53:37;;;;;;;339.38;84.50;;;;;;;3.34;100.00;103081.22;5025039;28;20034;-83
2022/01/25 08:56:03;;;;;;;321.73;81.10;;;;;;;3.43;100.00;103086.53;5009101;28;20074;-84
2022/01/25 08:58:29;;;;;;;304.17;78.68;;;;;;;3.32;100.00;103083.06;5042758;28;20023;-83
2022/01/25 09:00:56;;;;;;;312.75;80.93;;;;;;;3.32;100.00;103083.06;5009105;28;20037;-82
2022/01/25 09:03:22;;;;;;;332.60;79.05;;;;;;;3.27;100.00;103084.94;5011229;28;20117;-84
2022/01/25 09:05:48;;;;;;;330.67;83.18;;;;;;;3.30;100.00;103082.19;4994419;28;20034;-84
2022/01/25 09:08:19;;;;;;;322.13;80.72;;;;;;;3.40;100.00;103096.50;5014836;28;20034;-83
2022/01/25 09:10:45;;;;;;;332.85;86.20;;;;;;;3.30;100.00;103091.19;5012839;28;20026;-82
2022/01/25 09:13:10;;;;;;;341.67;85.35;;;;;;;3.20;100.00;103086.81;4993985;28;20026;-83
2022/01/25 09:15:36;;;;;;;322.73;84.63;;;;;;;3.32;100.00;103091.19;4995735;28;20030;-82
2022/01/25 09:18:02;;;;;;;334.77;85.07;;;;;;;3.26;100.00;103105.72;4992176;28;20085;-83
2022/01/25 09:20:27;;;;;;;342.10;85.95;;;;;;;3.29;100.00;103093.94;5026295;28;20050;-82
2022/01/25 09:22:53;;;;;;;336.00;85.10;;;;;;;3.47;100.00;103100.91;4999361;28;20022;-82
2022/01/25 09:25:18;;;;;;;360.05;85.75;;;;;;;3.45;100.00;103094.63;4993325;28;20038;-83
2022/01/25 09:27:44;;;;;;;355.23;88.05;;;;;;;3.44;100.00;103096.47;5004619;28;20053;-83
2022/01/25 09:30:11;;;;;;;369.52;90.28;;;;;;;3.45;100.00;103076.56;4994993;28;20067;-83
2022/01/25 09:32:37;;;;;;;372.95;88.75;;;;;;;3.59;100.00;103092.66;5007216;28;20125;-82
2022/01/25 09:35:04;;;;;;;384.15;90.40;;;;;;;3.36;100.00;103101.06;5009598;28;20030;-83
2022/01/25 09:37:29;;;;;;;378.60;93.00;;;;;;;3.40;100.00;103100.09;4990948;28;20034;-83
2022/01/25 09:39:55;;;;;;;372.13;86.88;;;;;;;3.42;100.00;103090.16;4990561;28;20044;-83
2022/01/25 09:42:22;;;;;;;344.10;84.35;;;;;;;3.47;100.00;103104.50;4990909;28;20038;-83
2022/01/25 09:44:48;;;;;;;349.58;87.43;;;;;;;3.47;100.00;103099.09;5022716;28;20086;-82
2022/01/25 09:47:14;;;;;;;365.58;88.72;;;;;;;3.47;100.00;103106.34;5005256;28;20094;-83
2022/01/25 09:49:39;;;;;;;360.27;86.47;;;;;;;3.52;100.00;103106.28;4991747;28;20062;-83
2022/01/25 09:52:07;;;;;;;359.92;89.20;;;;;;;3.47;100.00;103109.94;5010421;28;20030;-84
2022/01/25 09:54:34;;;;;;;354.35;84.97;;;;;;;3.58;100.00;103108.91;5015913;28;20034;-85
2022/01/25 09:57:02;;;;;;;364.48;88.65;;;;;;;3.46;100.00;103109.94;5020472;28;20035;-84
2022/01/25 09:59:28;;;;;;;367.27;89.13;;;;;;;3.49;100.00;103113.53;5009270;28;20043;-85
2022/01/25 10:01:55;;;;;;;372.38;90.82;;;;;;;3.52;100.00;103112.59;4991486;28;20058;-84
2022/01/25 10:04:31;;;;;;;402.73;93.82;;;;;;;3.60;100.00;103116.09;5023819;28;20015;-84
2022/01/25 10:06:56;;;;;;;393.45;96.85;;;;;;;3.61;100.00;103120.59;5029813;28;20053;-84
2022/01/25 10:09:22;;;;;;;405.52;93.78;;;;;;;3.55;100.00;103119.78;4981522;28;20094;-85
2022/01/25 10:11:49;;;;;;;398.73;100.10;;;;;;;3.36;100.00;103114.63;5015878;28;20076;-83
2022/01/25 10:14:15;;;;;;;383.80;93.43;;;;;;;3.37;100.00;103123.63;5040113;28;20037;-82
2022/01/25 10:16:43;;;;;;;397.25;95.38;;;;;;;3.29;100.00;103115.59;5015793;28;20119;-82
2022/01/25 10:19:12;;;;;;;382.35;93.65;;;;;;;3.17;100.00;103103.09;5028552;28;20058;-82
2022/01/25 10:21:51;;;;;;;383.65;93.78;;;;;;;3.33;100.00;103127.28;5022977;28;20039;-83
2022/01/25 10:24:18;;;;;;;370.15;91.63;;;;;;;3.48;100.00;103118.97;5027780;28;20069;-83
2022/01/25 10:26:51;;;;;;;390.08;94.35;;;;;;;3.46;100.00;103113.56;5036742;28;20050;-84
2022/01/25 10:29:26;;;;;;;385.83;90.40;;;;;;;3.35;100.00;103112.81;5010111;28;20050;-84
2022/01/25 10:32:02;;;;;;;360.38;87.53;;;;;;;3.45;100.00;103113.59;5004140;28;20781;-83
2022/01/25 10:34:35;;;;;;;348.17;84.65;;;;;;;3.58;100.00;103122.47;5019677;28;20049;-84
2022/01/25 10:37:11;;;;;;;334.40;86.32;;;;;;;3.68;100.00;103116.88;4984335;28;20039;-82
2022/01/25 10:39:42;;;;;;;301.65;75.50;;;;;;;3.81;100.00;103119.44;5020594;28;20047;-81
2022/01/25 10:42:14;;;;;;;349.65;86.70;;;;;;;3.73;100.00;103113.22;5014077;28;20053;-81
2022/01/25 10:44:48;;;;;;;346.10;85.50;;;;;;;3.53;100.00;103106.25;5030713;28;20090;-82
2022/01/25 10:47:14;;;;;;;340.05;86.70;;;;;;;3.52;100.00;103107.16;5017818;28;20105;-82
2022/01/25 10:49:44;;;;;;;346.50;85.55;;;;;;;3.61;100.00;103101.63;4989136;28;20061;-82
2022/01/25 10:52:10;;;;;;;356.10;87.72;;;;;;;3.71;100.00;103097.00;5023223;28;20029;-81
2022/01/25 10:54:40;;;;;;;339.58;88.63;;;;;;;3.58;100.00;103093.56;5003962;28;20478;-82
2022/01/25 10:57:23;;;;;;;340.83;87.25;;;;;;;3.67;100.00;103097.94;5015017;28;20033;-82
2022/01/25 10:59:58;;;;;;;360.15;90.55;;;;;;;3.69;100.00;103096.13;5019354;28;20181;-82
2022/01/25 11:02:24;;;;;;;304.90;83.63;;;;;;;3.63;100.00;103098.91;4999810;28;20471;-81
2022/01/25 11:05:04;;;;;;;305.42;81.22;;;;;;;3.76;100.00;103095.09;5005088;28;20031;-81
2022/01/25 11:07:37;;;;;;;307.15;80.00;;;;;;;3.72;100.00;103087.94;5013416;28;20145;-82
2022/01/25 11:10:04;;;;;;;326.92;86.05;;;;;;;3.85;100.00;103105.81;5004050;28;20046;-81
2022/01/25 11:12:36;;;;;;;328.00;87.05;;;;;;;3.79;100.00;103099.59;5033600;28;20106;-80
2022/01/25 11:15:04;;;;;;;308.92;81.50;;;;;;;3.93;100.00;103097.56;5024933;28;20050;-83
2022/01/25 11:17:31;;;;;;;313.48;82.10;;;;;;;3.86;100.00;103096.75;4994876;28;20034;-84
2022/01/25 11:19:59;;;;;;;336.45;85.60;;;;;;;3.81;100.00;103111.31;5028581;28;20113;-80
2022/01/25 11:22:26;;;;;;;324.23;85.80;;;;;;;3.81;100.00;103101.34;4988550;28;20039;-84
2022/01/25 11:25:10;;;;;;;343.38;84.90;;;;;;;3.74;100.00;103105.06;5003782;28;20053;-84
2022/01/25 11:27:39;;;;;;;333.30;84.45;;;;;;;3.76;100.00;103097.81;5018799;28;20041;-82
2022/01/25 11:30:09;;;;;;;319.33;81.97;;;;;;;3.73;100.00;103108.69;5008387;28;20022;-82
2022/01/25 11:32:40;;;;;;;330.73;82.95;;;;;;;3.84;100.00;103098.59;5006985;28;20134;-81
2022/01/25 11:35:09;;;;;;;329.85;85.93;;;;;;;3.67;100.00;103100.66;4997599;28;20090;-81
2022/01/25 11:37:38;;;;;;;336.65;82.93;;;;;;;3.71;100.00;103102.41;5039094;28;20030;-80
2022/01/25 11:40:28;;;;;;;332.58;86.47;;;;;;;3.70;100.00;103106.03;5020369;28;20065;-81
2022/01/25 11:42:57;;;;;;;318.63;82.68;;;;;;;3.92;100.00;103111.13;5003428;28;20038;-81
2022/01/25 11:45:25;;;;;;;313.65;83.30;;;;;;;3.87;100.00;103119.34;4999803;28;20116;-82
2022/01/25 11:47:53;;;;;;;308.13;82.28;;;;;;;4.00;100.00;103120.03;5016477;28;20585;-80
2022/01/25 11:50:24;;;;;;;326.15;82.35;;;;;;;4.13;100.00;103120.75;5006914;28;20030;-83
2022/01/25 11:52:52;;;;;;;311.42;81.75;;;;;;;3.68;100.00;103118.69;5000991;28;20030;-83
2022/01/25 11:55:17;;;;;;;307.90;79.47;;;;;;;3.67;100.00;103116.91;5000531;28;20047;-82
2022/01/25 11:57:58;;;;;;;287.33;78.13;;;;;;;3.64;100.00;103115.16;4996218;28;20037;-83
2022/01/25 12:01:01;;;;;;;287.48;77.10;;;;;;;3.61;100.00;103115.19;5023131;28;20034;-83
2022/01/25 12:03:37;;;;;;;297.67;78.50;;;;;;;3.70;100.00;103114.16;5014594;28;20042;-82
2022/01/25 12:06:18;;;;;;;313.55;84.68;;;;;;;3.70;100.00;103108.72;5013120;28;20034;-81
2022/01/25 12:09:15;;;;;;;324.05;85.88;;;;;;;3.69;100.00;103106.97;5021017;28;20038;-82
2022/01/25 12:11:48;;;;;;;330.38;80.97;;;;;;;3.75;100.00;103104.16;5038973;28;20046;-82
2022/01/25 12:14:26;;;;;;;350.75;89.25;;;;;;;3.85;100.00;103102.19;5039868;28;20038;-82
2022/01/25 12:17:03;;;;;;;354.75;85.50;;;;;;;3.76;100.00;103096.94;5007358;28;20038;-82
2022/01/25 12:19:35;;;;;;;357.58;87.85;;;;;;;3.83;100.00;103088.66;5007373;28;20030;-82
2022/01/25 12:25:30;;;;;;;340.80;87.55;;;;;;;3.81;100.00;103085.09;4997905;28;20038;-83
2022/01/25 12:28:03;;;;;;;343.58;91.05;;;;;;;3.92;100.00;103081.31;5006554;28;20470;-85
2022/01/25 12:30:31;;;;;;;;;;;;;;;3.83;100.00;103085.97;4990899;28;20026;-81
2022/01/25 12:33:05;;;;;;;350.35;91.55;;;;;;;3.84;100.00;103085.06;5007348;28;19993;-83
2022/01/25 12:35:37;;;;;;;337.05;86.43;;;;;;;3.88;100.00;103077.78;5006787;28;20046;-82
2022/01/25 12:38:19;;;;;;;350.33;88.30;;;;;;;3.88;100.00;103076.88;5007385;28;20034;-82
2022/01/25 12:40:55;;;;;;;327.42;85.32;;;;;;;3.84;100.00;103070.63;5013612;28;20122;-83
2022/01/25 12:43:24;;;;;;;346.17;90.00;;;;;;;3.78;100.00;103066.16;5022666;28;20034;-82
2022/01/25 12:46:18;;;;;;;327.80;83.28;;;;;;;4.00;100.00;103063.13;4990874;28;20728;-83
2022/01/25 12:49:11;;;;;;;337.05;87.32;;;;;;;4.06;100.00;103063.03;5000347;28;20046;-83
2022/01/25 12:51:41;;;;;;;298.27;78.22;;;;;;;3.99;100.00;103069.47;4987335;28;20487;-83
2022/01/25 12:54:12;;;;;;;283.77;73.25;;;;;;;3.89;100.00;103062.41;5007169;28;20445;-82
2022/01/25 12:56:43;;;;;;;296.83;74.55;;;;;;;3.80;100.00;103048.06;5039466;28;20038;-83
2022/01/25 12:59:15;;;;;;;279.67;76.57;;;;;;;4.01;100.00;103057.69;5006514;28;20040;-83
2022/01/25 13:01:43;;;;;;;292.80;73.32;;;;;;;3.99;100.00;103051.41;5006555;28;20057;-84
2022/01/25 13:04:11;;;;;;;296.83;75.20;;;;;;;3.96;100.00;103061.41;5022780;28;20030;-84
2022/01/25 13:06:43;;;;;;;290.08;71.72;;;;;;;3.76;100.00;103037.31;5007045;28;20062;-84